Time;durP1;ratioP1;P1;durP2;ratioP2;P2;SDS_P1;SDS_P2;PMS_P1;PMS_P2;Temp;Humidity;BMP_temperature;BMP_pressure;BME280_temperature;BME280_humidity;BME280_pressure;Samples;Min_cycle;Max_cycle;Signal;HPM_P1;HPM_P2
2021/12/28 00:03:17;;;;;;;48.85;7.95;;;;;;;6.49;100.00;94268.09;30502973;19;20011;-73
2021/12/28 00:13:17;;;;;;;57.47;9.00;;;;;;;6.54;100.00;94252.19;30447403;19;20513;-73
2021/12/28 00:23:21;;;;;;;61.13;9.43;;;;;;;6.51;100.00;94252.78;30452969;19;20013;-73
2021/12/28 00:33:24;;;;;;;47.70;6.13;;;;;;;6.54;100.00;94243.50;30443063;19;20278;-73
2021/12/28 00:43:26;;;;;;;46.58;7.03;;;;;;;6.58;100.00;94232.06;30461913;19;20387;-73
2021/12/28 00:53:27;;;;;;;53.10;9.70;;;;;;;6.60;100.00;94221.25;30512464;19;20094;-73
2021/12/28 01:03:28;;;;;;;42.58;7.43;;;;;;;6.61;100.00;94220.16;30474312;19;21067;-73
2021/12/28 01:13:28;;;;;;;47.70;6.15;;;;;;;6.56;100.00;94215.03;30463362;19;20006;-73
2021/12/28 01:23:28;;;;;;;43.10;7.45;;;;;;;6.48;100.00;94206.09;30529874;19;19999;-73
2021/12/28 01:33:29;;;;;;;28.17;3.78;;;;;;;6.41;100.00;94209.16;30542671;19;20081;-74
2021/12/28 01:43:29;;;;;;;33.67;5.47;;;;;;;6.49;100.00;94199.72;30515538;19;20006;-72
2021/12/28 01:53:30;;;;;;;33.25;5.90;;;;;;;6.38;100.00;94188.75;30415877;19;20410;-73
2021/12/28 02:03:32;;;;;;;27.70;4.15;;;;;;;6.34;100.00;94181.81;30486542;19;20018;-73
2021/12/28 02:13:33;;;;;;;19.88;3.35;;;;;;;6.31;100.00;94158.75;30510933;19;20357;-73
2021/12/28 02:23:34;;;;;;;17.45;2.50;;;;;;;6.22;100.00;94150.88;30461835;19;20281;-71
2021/12/28 02:33:35;;;;;;;10.18;1.98;;;;;;;6.17;100.00;94140.50;30462784;19;20017;-72
2021/12/28 02:43:36;;;;;;;9.25;1.60;;;;;;;6.12;100.00;94123.03;30485460;19;20710;-73
2021/12/28 02:53:37;;;;;;;8.95;1.98;;;;;;;6.16;100.00;94102.94;30532077;19;20015;-72
2021/12/28 03:03:38;;;;;;;9.57;1.88;;;;;;;6.11;100.00;94089.97;30448617;19;20010;-71
2021/12/28 03:13:44;;;;;;;10.40;1.83;;;;;;;6.06;100.00;94084.09;30494803;19;20014;-72
2021/12/28 03:23:45;;;;;;;6.88;1.65;;;;;;;6.12;100.00;94080.22;30516158;19;21876;-71
2021/12/28 03:33:48;;;;;;;8.32;1.70;;;;;;;6.03;100.00;94065.22;30488780;19;20035;-71
2021/12/28 03:43:51;;;;;;;9.20;2.03;;;;;;;5.98;100.00;94059.34;30483871;19;20025;-74
2021/12/28 03:53:51;;;;;;;5.43;1.20;;;;;;;5.99;100.00;94053.78;30536654;19;20380;-74
2021/12/28 04:03:52;;;;;;;6.25;1.10;;;;;;;5.95;100.00;94038.97;30497367;19;20415;-73
2021/12/28 04:13:55;;;;;;;3.67;0.90;;;;;;;5.96;100.00;94035.22;30514441;19;20493;-72
2021/12/28 04:23:56;;;;;;;4.75;0.80;;;;;;;5.97;100.00;94029.69;30485612;19;20681;-73
2021/12/28 04:33:56;;;;;;;2.38;0.60;;;;;;;5.93;100.00;94017.44;30511028;19;20860;-72
2021/12/28 04:43:59;;;;;;;3.83;0.70;;;;;;;5.95;100.00;94028.44;30437950;19;20093;-72
2021/12/28 04:54:05;;;;;;;3.78;0.77;;;;;;;5.94;100.00;94027.63;30438029;19;20027;-73
2021/12/28 05:04:06;;;;;;;2.17;0.67;;;;;;;5.89;100.00;94014.66;30496091;19;20014;-72
2021/12/28 05:14:08;;;;;;;3.17;0.60;;;;;;;5.92;100.00;94005.38;30490442;19;20348;-72
2021/12/28 05:24:09;;;;;;;7.32;1.60;;;;;;;5.87;100.00;93995.03;30502575;19;19995;-72
2021/12/28 05:34:09;;;;;;;2.08;0.75;;;;;;;5.90;100.00;93981.28;30495627;19;20015;-71
2021/12/28 05:44:09;;;;;;;6.90;1.33;;;;;;;5.84;100.00;93970.94;30515445;19;20040;-72
2021/12/28 05:54:10;;;;;;;3.80;1.17;;;;;;;5.85;100.00;93992.72;30498592;19;20023;-74
2021/12/28 06:04:11;;;;;;;3.50;1.23;;;;;;;5.91;100.00;93983.59;30549834;19;20426;-72
2021/12/28 06:14:12;;;;;;;4.55;1.52;;;;;;;5.88;100.00;93983.44;30528165;19;20010;-71
2021/12/28 06:24:12;;;;;;;4.95;1.67;;;;;;;5.83;100.00;93987.78;30503965;19;20022;-73
2021/12/28 06:34:12;;;;;;;5.63;1.75;;;;;;;5.82;100.00;93986.25;30544461;19;20010;-73
2021/12/28 06:44:13;;;;;;;5.60;2.00;;;;;;;5.83;100.00;93995.66;30520938;19;19999;-72
2021/12/28 06:54:14;;;;;;;5.70;1.95;;;;;;;5.87;100.00;93980.06;30532359;19;20006;-72
2021/12/28 07:04:14;;;;;;;6.53;2.78;;;;;;;5.77;100.00;94007.41;30459663;19;20003;-71
2021/12/28 07:14:14;;;;;;;5.85;3.00;;;;;;;5.81;100.00;94028.59;30459626;19;20458;-72
2021/12/28 07:24:15;;;;;;;5.05;2.40;;;;;;;5.78;100.00;94034.44;30521133;19;20014;-73
2021/12/28 07:34:16;;;;;;;6.22;2.38;;;;;;;5.82;100.00;94038.00;30495473;19;20010;-71
2021/12/28 07:44:16;;;;;;;5.75;2.50;;;;;;;5.74;100.00;94047.44;30527427;19;20011;-73
2021/12/28 07:54:17;;;;;;;4.93;2.28;;;;;;;5.78;100.00;94065.97;30528831;19;20352;-74
2021/12/28 08:04:17;;;;;;;5.93;3.00;;;;;;;5.75;100.00;94069.22;30531952;19;20066;-75
2021/12/28 08:14:18;;;;;;;4.80;2.20;;;;;;;5.72;100.00;94078.50;30523901;19;20066;-75
2021/12/28 08:24:19;;;;;;;5.70;2.60;;;;;;;5.77;100.00;94072.31;30528421;19;20015;-75
2021/12/28 08:34:19;;;;;;;6.55;3.25;;;;;;;5.86;100.00;94088.84;30540743;19;20007;-75
2021/12/28 08:44:27;;;;;;;5.38;2.33;;;;;;;5.96;100.00;94095.69;30531909;19;20050;-76
2021/12/28 08:54:27;;;;;;;6.55;2.85;;;;;;;6.04;100.00;94079.13;30526498;19;20344;-76
2021/12/28 09:04:27;;;;;;;7.53;3.63;;;;;;;6.11;100.00;94084.69;30541116;19;20007;-76
2021/12/28 09:14:28;;;;;;;5.97;2.67;;;;;;;6.19;100.00;94085.75;30520860;19;20047;-77
2021/12/28 09:24:28;;;;;;;7.50;3.38;;;;;;;6.23;100.00;94087.47;30529044;19;20007;-76
2021/12/28 09:34:29;;;;;;;6.03;2.67;;;;;;;6.34;100.00;94103.69;30573680;19;20036;-74
2021/12/28 09:44:32;;;;;;;4.72;1.90;;;;;;;6.56;100.00;94089.56;30552468;19;20006;-75
2021/12/28 09:54:33;;;;;;;4.18;1.67;;;;;;;6.74;100.00;94087.66;30556294;19;20462;-75
2021/12/28 10:04:33;;;;;;;3.65;1.38;;;;;;;7.02;100.00;94068.81;30544689;19;20352;-75
2021/12/28 10:14:34;;;;;;;5.05;1.17;;;;;;;7.21;100.00;94063.13;30535001;19;20010;-75
2021/12/28 10:24:34;;;;;;;2.88;0.90;;;;;;;7.20;100.00;94051.06;30553769;19;20114;-78
2021/12/28 10:34:44;;;;;;;1.10;0.55;;;;;;;7.23;100.00;94040.66;30552633;19;20050;-78
2021/12/28 10:44:58;;;;;;;1.58;0.70;;;;;;;7.28;100.00;94031.81;30542213;19;20019;-75
2021/12/28 10:55:17;;;;;;;1.75;0.60;;;;;;;7.30;100.00;94013.06;30540370;19;20182;-75
2021/12/28 11:05:34;;;;;;;4.85;0.85;;;;;;;7.37;100.00;93997.50;30544931;19;20080;-76
2021/12/28 11:15:38;;;;;;;2.05;0.75;;;;;;;7.38;100.00;93991.16;30546132;19;20014;-76
2021/12/28 11:25:39;;;;;;;4.68;1.30;;;;;;;7.39;100.00;93990.81;30529783;19;20006;-75
2021/12/28 11:35:39;;;;;;;2.17;0.80;;;;;;;7.53;100.00;93973.97;30557883;19;20010;-76
2021/12/28 11:45:39;;;;;;;1.50;0.90;;;;;;;7.58;100.00;93969.28;30495050;19;20035;-75
2021/12/28 11:55:43;;;;;;;2.40;0.47;;;;;;;7.56;100.00;93976.75;30523807;19;20018;-78
2021/12/28 12:05:44;;;;;;;3.08;0.60;;;;;;;7.47;100.00;93962.09;30503607;19;20017;-76
2021/12/28 12:15:51;;;;;;;13.90;1.67;;;;;;;6.89;100.00;93998.75;30510184;19;20014;-76
2021/12/28 12:25:58;;;;;;;18.52;2.05;;;;;;;7.03;100.00;93973.72;30524257;19;20399;-76
2021/12/28 12:35:59;;;;;;;19.98;2.67;;;;;;;6.83;100.00;93966.56;30544522;19;20015;-77
2021/12/28 12:46:18;;;;;;;23.88;3.55;;;;;;;6.59;100.00;93975.81;30516163;19;20364;-78
2021/12/28 12:56:31;;;;;;;30.50;4.60;;;;;;;6.63;100.00;93978.59;30543901;19;20014;-78
2021/12/28 13:06:40;;;;;;;24.42;4.28;;;;;;;6.35;100.00;93975.59;30547210;19;20019;-77
2021/12/28 13:16:41;;;;;;;26.88;3.65;;;;;;;6.49;100.00;93957.00;30540142;19;20024;-75
2021/12/28 13:26:45;;;;;;;22.40;2.75;;;;;;;6.39;100.00;93953.63;30528082;19;20505;-76
2021/12/28 13:36:54;;;;;;;14.55;2.45;;;;;;;6.30;100.00;93955.53;30561346;19;20400;-77
2021/12/28 13:46:54;;;;;;;18.83;3.10;;;;;;;6.18;100.00;93955.41;30553868;19;20013;-76
2021/12/28 13:56:55;;;;;;;20.65;3.47;;;;;;;6.00;100.00;93975.72;30554839;19;20010;-76
2021/12/28 14:06:56;;;;;;;18.73;4.13;;;;;;;6.09;100.00;93980.94;30555202;19;20581;-75
2021/12/28 14:17:00;;;;;;;22.13;4.30;;;;;;;6.13;100.00;93984.50;30550912;19;20010;-79
2021/12/28 14:27:01;;;;;;;25.88;3.03;;;;;;;6.12;100.00;93978.47;30548276;19;20014;-78
2021/12/28 14:37:07;;;;;;;22.33;3.33;;;;;;;6.16;100.00;93991.75;30564246;19;20027;-75
2021/12/28 14:47:18;;;;;;;24.07;3.00;;;;;;;6.19;100.00;93997.16;30554005;19;20466;-77
2021/12/28 14:57:19;;;;;;;30.08;4.82;;;;;;;6.04;100.00;93979.25;30544101;19;20015;-76
2021/12/28 15:07:22;;;;;;;29.75;2.97;;;;;;;5.75;100.00;93980.69;30551070;19;20053;-76
2021/12/28 15:17:23;;;;;;;15.23;3.28;;;;;;;5.64;100.00;93976.84;30545735;19;20003;-76
2021/12/28 15:27:23;;;;;;;25.42;4.72;;;;;;;5.56;100.00;93983.63;30533459;19;20556;-74
2021/12/28 15:37:24;;;;;;;34.47;4.88;;;;;;;5.54;100.00;93991.06;30552509;19;20007;-73
2021/12/28 15:47:25;;;;;;;40.50;5.05;;;;;;;5.51;100.00;93993.53;30539017;19;20011;-77
2021/12/28 15:57:25;;;;;;;25.23;3.83;;;;;;;5.58;100.00;93999.88;30529945;19;20018;-76
2021/12/28 16:07:25;;;;;;;34.17;5.72;;;;;;;5.52;100.00;94000.34;30525459;19;20049;-74
2021/12/28 16:17:26;;;;;;;25.80;3.80;;;;;;;5.39;100.00;94002.00;30528525;19;20098;-76
2021/12/28 16:27:27;;;;;;;32.58;4.28;;;;;;;5.34;100.00;94023.94;30525303;19;20479;-75
2021/12/28 16:37:28;;;;;;;51.60;6.22;;;;;;;5.31;100.00;94021.94;30517558;19;20344;-75
2021/12/28 16:47:29;;;;;;;26.02;3.53;;;;;;;5.38;100.00;94006.50;30549405;19;20006;-78
2021/12/28 16:57:29;;;;;;;24.05;3.17;;;;;;;5.34;100.00;94023.94;30441767;19;20471;-75
2021/12/28 17:07:29;;;;;;;19.33;3.80;;;;;;;5.36;100.00;94013.13;30489476;19;20122;-77
2021/12/28 17:17:31;;;;;;;26.02;4.93;;;;;;;5.34;100.00;94026.56;30510530;19;20028;-79
2021/12/28 17:27:31;;;;;;;25.73;3.67;;;;;;;5.28;100.00;94016.53;30453665;19;20162;-72
2021/12/28 17:37:31;;;;;;;27.58;3.60;;;;;;;5.25;100.00;94031.06;30506086;19;20499;-75
2021/12/28 17:47:32;;;;;;;31.60;3.72;;;;;;;5.28;100.00;94038.31;30570909;19;20040;-74
2021/12/28 17:57:32;;;;;;;25.83;3.75;;;;;;;5.34;100.00;94044.19;30552591;19;20007;-75
2021/12/28 18:07:34;;;;;;;26.08;4.05;;;;;;;5.28;100.00;94045.41;30557752;19;20023;-74
2021/12/28 18:17:35;;;;;;;15.25;2.35;;;;;;;5.34;100.00;94057.31;30562565;19;20031;-75
2021/12/28 18:27:36;;;;;;;22.00;2.83;;;;;;;5.34;100.00;94073.06;30540740;19;20017;-76
2021/12/28 18:37:36;;;;;;;21.50;2.83;;;;;;;5.39;100.00;94101.78;30563356;19;20006;-74
2021/12/28 18:47:37;;;;;;;14.32;2.08;;;;;;;5.40;100.00;94116.47;30549808;19;20015;-76
2021/12/28 18:57:38;;;;;;;13.18;2.22;;;;;;;5.46;100.00;94141.50;30549410;19;20014;-73
2021/12/28 19:07:41;;;;;;;7.45;1.02;;;;;;;5.48;100.00;94141.97;30549589;19;20002;-75
2021/12/28 19:17:41;;;;;;;6.60;1.20;;;;;;;5.57;100.00;94166.38;30552428;19;20607;-77
2021/12/28 19:27:42;;;;;;;3.13;0.77;;;;;;;5.65;100.00;94159.59;30541674;19;20010;-76
2021/12/28 19:37:42;;;;;;;3.65;0.80;;;;;;;5.70;100.00;94184.94;30543341;19;20024;-75
2021/12/28 19:47:43;;;;;;;9.80;1.00;;;;;;;5.73;100.00;94200.88;30543033;19;20014;-77
2021/12/28 19:57:44;;;;;;;4.70;0.80;;;;;;;5.76;100.00;94223.13;30555796;19;20280;-74
2021/12/28 20:07:45;;;;;;;6.72;1.13;;;;;;;5.77;100.00;94238.59;30524796;19;20037;-76
2021/12/28 20:17:47;;;;;;;7.50;1.20;;;;;;;5.84;100.00;94274.91;30552457;19;20010;-76
2021/12/28 20:27:48;;;;;;;6.32;1.48;;;;;;;5.87;100.00;94297.19;30524624;19;20874;-77
2021/12/28 20:37:49;;;;;;;4.15;1.55;;;;;;;5.92;100.00;94312.81;30499716;19;20558;-75
2021/12/28 20:47:50;;;;;;;8.38;1.30;;;;;;;5.98;100.00;94322.91;30454827;19;20003;-71
2021/12/28 20:57:53;;;;;;;11.13;1.40;;;;;;;5.97;100.00;94346.88;30489224;19;20011;-72
2021/12/28 21:07:55;;;;;;;4.80;1.65;;;;;;;6.02;100.00;94370.38;30421981;19;20011;-72
2021/12/28 21:17:55;;;;;;;8.75;1.67;;;;;;;6.05;100.00;94398.72;30483546;19;20021;-72
2021/12/28 21:27:56;;;;;;;4.43;1.20;;;;;;;6.06;100.00;94410.00;30502176;19;20018;-73
2021/12/28 21:37:59;;;;;;;5.72;1.23;;;;;;;6.06;100.00;94449.41;30503583;19;20052;-73
2021/12/28 21:48:02;;;;;;;6.05;1.83;;;;;;;6.09;100.00;94460.09;30467201;19;19998;-72
2021/12/28 21:58:02;;;;;;;7.05;1.67;;;;;;;6.09;100.00;94480.34;30430271;19;20769;-72
2021/12/28 22:08:04;;;;;;;8.40;1.63;;;;;;;6.12;100.00;94511.28;30442182;19;20081;-73
2021/12/28 22:18:07;;;;;;;8.57;1.95;;;;;;;6.13;100.00;94529.41;30443440;19;20015;-73
2021/12/28 22:28:07;;;;;;;6.15;2.25;;;;;;;6.11;100.00;94549.16;30461383;19;20503;-73
2021/12/28 22:38:11;;;;;;;5.05;1.52;;;;;;;6.09;100.00;94573.13;30445240;19;20526;-72
2021/12/28 22:48:11;;;;;;;7.38;1.83;;;;;;;6.08;100.00;94592.59;30497156;19;20094;-72
2021/12/28 22:58:12;;;;;;;6.57;2.30;;;;;;;6.07;100.00;94609.47;30425232;19;20078;-72
2021/12/28 23:08:13;;;;;;;8.48;3.40;;;;;;;6.13;100.00;94631.13;30409754;19;20271;-73
2021/12/28 23:18:14;;;;;;;9.60;3.78;;;;;;;6.08;100.00;94641.78;30496000;19;20344;-72
2021/12/28 23:28:16;;;;;;;12.07;4.13;;;;;;;6.04;100.00;94659.97;30461173;19;20411;-73
2021/12/28 23:38:16;;;;;;;11.00;4.03;;;;;;;6.03;100.00;94666.31;30415982;19;20147;-74
2021/12/28 23:48:16;;;;;;;9.02;3.95;;;;;;;5.97;100.00;94668.28;30448101;19;20031;-73
2021/12/28 23:58:18;;;;;;;5.97;3.08;;;;;;;5.93;100.00;94690.94;30424691;19;20006;-73
